createdAt,value
2023-04-28T00:00:40.472Z,1.98
2023-04-28T00:05:42.174Z,1.85
2023-04-28T00:10:43.748Z,2.00
2023-04-28T00:15:45.301Z,2.05
2023-04-28T00:20:47.241Z,1.90
2023-04-28T00:25:55.608Z,1.98
2023-04-28T00:30:57.123Z,1.92
2023-04-28T00:36:00.053Z,2.00
2023-04-28T00:41:01.683Z,1.98
2023-04-28T00:46:03.423Z,2.05
2023-04-28T00:51:06.476Z,2.65
2023-04-28T00:56:08.304Z,2.63
2023-04-28T01:01:10.640Z,2.42
2023-04-28T01:06:12.384Z,2.35
2023-04-28T01:11:14.854Z,2.33
2023-04-28T01:16:32.930Z,2.10
2023-04-28T01:21:35.530Z,2.35
2023-04-28T01:26:56.617Z,2.40
2023-04-28T01:32:00.715Z,2.45
2023-04-28T01:37:02.387Z,2.50
2023-04-28T01:42:04.092Z,2.60
2023-04-28T01:47:05.687Z,2.38
2023-04-28T01:52:09.835Z,2.25
2023-04-28T01:57:11.569Z,3.00
2023-04-28T02:02:13.333Z,2.30
2023-04-28T02:07:14.950Z,2.15
2023-04-28T02:12:17.528Z,2.40
2023-04-28T02:17:19.120Z,2.88
2023-04-28T02:22:21.288Z,2.78
2023-04-28T02:27:23.022Z,2.88
2023-04-28T02:32:24.602Z,2.88
2023-04-28T02:37:26.379Z,2.63
2023-04-28T02:42:28.012Z,2.97
2023-04-28T02:47:29.654Z,2.75
2023-04-28T02:52:31.269Z,2.88
2023-04-28T02:57:32.817Z,2.70
2023-04-28T03:02:34.522Z,2.75
2023-04-28T03:07:36.497Z,2.65
2023-04-28T03:12:38.163Z,2.90
2023-04-28T03:17:42.293Z,3.60
2023-04-28T03:22:44.245Z,3.38
2023-04-28T03:27:45.866Z,3.90
2023-04-28T03:32:47.501Z,4.10
2023-04-28T03:37:49.922Z,3.70
2023-04-28T03:42:51.493Z,3.88
2023-04-28T03:48:01.171Z,3.65
2023-04-28T03:53:02.729Z,3.42
2023-04-28T03:58:05.059Z,3.65
2023-04-28T04:03:09.044Z,3.28
2023-04-28T04:08:10.892Z,4.35
2023-04-28T04:13:12.939Z,3.75
2023-04-28T04:18:16.128Z,3.90
2023-04-28T04:23:37.632Z,3.58
2023-04-28T04:28:39.215Z,4.55
2023-04-28T04:33:42.906Z,3.83
2023-04-28T04:38:44.923Z,3.58
2023-04-28T04:43:54.008Z,3.47
2023-04-28T04:48:56.173Z,3.13
2023-04-28T04:53:57.774Z,3.65
2023-04-28T04:58:59.703Z,3.47
2023-04-28T05:04:30.659Z,3.47
2023-04-28T05:09:33.213Z,3.53
2023-04-28T05:14:35.598Z,3.90
2023-04-28T05:19:37.420Z,4.15
2023-04-28T05:24:39.138Z,4.78
2023-04-28T05:29:41.443Z,5.50
2023-04-28T05:34:45.003Z,5.47
2023-04-28T05:39:46.768Z,6.90
2023-04-28T05:44:48.805Z,8.38
2023-04-28T05:49:50.483Z,6.45
2023-04-28T05:54:52.160Z,9.20
2023-04-28T05:59:53.919Z,5.45
2023-04-28T06:04:56.263Z,4.50
2023-04-28T06:09:58.380Z,3.42
2023-04-28T06:15:00.191Z,4.03
2023-04-28T06:20:02.039Z,3.50
2023-04-28T06:25:03.944Z,3.10
2023-04-28T06:30:17.201Z,2.88
2023-04-28T06:35:18.839Z,2.67
2023-04-28T06:40:20.415Z,2.70
2023-04-28T06:45:27.060Z,2.75
2023-04-28T06:50:32.049Z,2.75
2023-04-28T06:55:35.010Z,2.47
2023-04-28T07:00:36.700Z,2.50
2023-04-28T07:05:38.350Z,2.22
2023-04-28T07:10:39.891Z,2.80
2023-04-28T07:15:42.118Z,2.65
2023-04-28T07:20:43.649Z,2.72
2023-04-28T07:25:45.250Z,2.85
2023-04-28T07:30:46.855Z,3.00
2023-04-28T07:35:49.579Z,2.80
2023-04-28T07:45:53.841Z,3.60
2023-04-28T07:50:55.794Z,3.53
2023-04-28T07:55:57.462Z,4.10
2023-04-28T08:00:59.053Z,3.33
2023-04-28T08:06:01.177Z,3.25
2023-04-28T08:11:02.994Z,3.85
2023-04-28T08:16:04.943Z,3.67
2023-04-28T08:21:07.113Z,3.25
2023-04-28T08:26:08.799Z,3.65
2023-04-28T08:31:10.496Z,3.78
2023-04-28T08:36:12.225Z,3.40
2023-04-28T08:41:15.647Z,3.58
2023-04-28T08:46:21.484Z,3.58
2023-04-28T08:51:33.482Z,3.45
2023-04-28T08:56:35.912Z,3.40
2023-04-28T09:01:37.655Z,3.17
2023-04-28T09:06:39.339Z,2.63
2023-04-28T09:11:55.567Z,2.50
2023-04-28T09:16:57.491Z,3.00
2023-04-28T09:21:59.364Z,2.22
2023-04-28T09:27:04.234Z,1.90
2023-04-28T09:32:17.070Z,1.65
2023-04-28T09:37:20.584Z,1.40
2023-04-28T09:42:42.037Z,1.20
2023-04-28T09:47:46.718Z,1.63
2023-04-28T09:52:58.196Z,0.98
2023-04-28T09:58:04.186Z,0.95
2023-04-28T10:03:09.539Z,1.20
2023-04-28T10:08:12.025Z,0.85
2023-04-28T10:13:13.619Z,0.60
2023-04-28T10:18:16.234Z,0.85
2023-04-28T10:23:20.753Z,0.73
2023-04-28T10:28:22.426Z,0.90
2023-04-28T10:33:26.150Z,1.00
2023-04-28T10:38:28.093Z,0.80
2023-04-28T10:43:30.741Z,0.80
2023-04-28T10:48:32.471Z,0.90
2023-04-28T10:53:46.768Z,1.10
2023-04-28T10:58:53.185Z,1.00
2023-04-28T11:04:08.439Z,0.90
2023-04-28T11:09:16.105Z,1.08
2023-04-28T11:14:18.317Z,0.77
2023-04-28T11:19:21.472Z,1.00
2023-04-28T11:24:26.234Z,1.40
2023-04-28T11:29:38.499Z,1.75
2023-04-28T11:34:40.093Z,0.93
2023-04-28T11:39:41.651Z,0.88
2023-04-28T11:44:52.330Z,0.90
2023-04-28T11:49:53.891Z,0.68
2023-04-28T11:55:02.216Z,0.90
2023-04-28T12:00:19.293Z,0.70
2023-04-28T12:05:22.523Z,0.70
2023-04-28T12:10:24.237Z,0.50
2023-04-28T12:15:41.086Z,0.52
2023-04-28T12:20:43.580Z,0.68
2023-04-28T12:25:47.265Z,0.88
2023-04-28T12:30:48.872Z,0.63
2023-04-28T12:35:50.555Z,0.70
2023-04-28T12:40:52.542Z,0.60
2023-04-28T12:45:55.689Z,0.70
2023-04-28T12:50:57.270Z,0.50
2023-04-28T12:55:59.413Z,0.40
2023-04-28T13:01:01.023Z,0.68
2023-04-28T13:06:02.563Z,0.50
2023-04-28T13:11:16.259Z,0.60
2023-04-28T13:16:28.965Z,0.60
2023-04-28T13:21:30.594Z,0.50
2023-04-28T13:26:37.800Z,0.77
2023-04-28T13:31:39.403Z,0.40
2023-04-28T13:36:43.465Z,0.60
2023-04-28T13:41:44.997Z,0.70
2023-04-28T13:46:47.251Z,0.80
2023-04-28T13:51:48.767Z,0.82
2023-04-28T13:56:52.646Z,0.70
2023-04-28T14:01:54.177Z,0.70
2023-04-28T14:06:55.824Z,0.70
2023-04-28T14:11:58.458Z,0.60
2023-04-28T14:17:00.323Z,0.50
2023-04-28T14:22:02.688Z,1.05
2023-04-28T14:27:04.685Z,0.50
2023-04-28T14:32:06.224Z,0.47
2023-04-28T14:37:07.791Z,0.50
2023-04-28T14:42:09.572Z,0.40
2023-04-28T14:47:11.171Z,0.38
2023-04-28T14:52:12.905Z,0.32
2023-04-28T14:57:14.957Z,0.57
2023-04-28T15:02:16.665Z,0.30
2023-04-28T15:07:23.767Z,0.20
2023-04-28T15:12:25.798Z,0.40
2023-04-28T15:17:28.464Z,0.40
2023-04-28T15:22:30.028Z,0.47
2023-04-28T15:27:32.188Z,0.60
2023-04-28T15:32:33.823Z,0.63
2023-04-28T15:37:44.628Z,0.55
2023-04-28T15:42:49.588Z,0.63
2023-04-28T15:47:51.815Z,0.93
2023-04-28T15:52:53.685Z,0.90
2023-04-28T15:57:56.155Z,0.90
2023-04-28T16:02:57.839Z,0.93
2023-04-28T16:07:59.990Z,1.00
2023-04-28T16:13:01.695Z,0.75
2023-04-28T16:18:03.481Z,1.10
2023-04-28T16:23:06.311Z,0.90
2023-04-28T16:28:08.234Z,0.85
2023-04-28T16:33:10.020Z,1.20
2023-04-28T16:38:12.329Z,1.20
2023-04-28T16:43:14.352Z,1.33
2023-04-28T16:48:18.422Z,1.15
2023-04-28T16:53:19.980Z,1.20
2023-04-28T16:58:21.560Z,1.15
2023-04-28T17:03:23.323Z,1.17
2023-04-28T17:08:24.931Z,1.27
2023-04-28T17:13:26.758Z,1.15
2023-04-28T17:18:28.770Z,1.10
2023-04-28T17:23:30.325Z,1.05
2023-04-28T17:28:32.787Z,1.20
2023-04-28T17:33:34.562Z,1.30
2023-04-28T17:38:38.287Z,1.20
2023-04-28T17:43:39.951Z,1.00
2023-04-28T17:48:42.385Z,1.00
2023-04-28T17:53:46.217Z,1.45
2023-04-28T17:58:47.949Z,1.35
2023-04-28T18:03:49.533Z,1.20
2023-04-28T18:08:51.372Z,1.38
2023-04-28T18:13:52.933Z,1.55
2023-04-28T18:18:54.461Z,1.27
2023-04-28T18:23:56.117Z,1.30
2023-04-28T18:28:57.656Z,1.50
2023-04-28T18:33:59.572Z,1.20
2023-04-28T18:39:02.075Z,1.20
2023-04-28T18:44:03.707Z,1.27
2023-04-28T18:49:05.550Z,1.30
2023-04-28T18:54:07.221Z,1.42
2023-04-28T18:59:09.525Z,1.38
2023-04-28T19:04:11.336Z,2.00
2023-04-28T19:09:14.379Z,1.55
2023-04-28T19:14:16.044Z,2.22
2023-04-28T19:19:17.708Z,2.65
2023-04-28T19:24:19.243Z,2.05
2023-04-28T19:29:20.797Z,2.60
2023-04-28T19:34:22.325Z,3.00
2023-04-28T19:39:23.864Z,3.10
2023-04-28T19:44:25.421Z,2.90
2023-04-28T19:49:26.954Z,2.83
2023-04-28T19:54:28.497Z,3.28
2023-04-28T19:59:30.039Z,2.58
2023-04-28T20:04:32.035Z,3.45
2023-04-28T20:09:37.815Z,3.88
2023-04-28T20:14:39.389Z,3.50
2023-04-28T20:19:40.961Z,3.60
2023-04-28T20:24:42.490Z,3.90
2023-04-28T20:29:44.064Z,3.42
2023-04-28T20:34:45.814Z,3.72
2023-04-28T20:39:48.665Z,3.97
2023-04-28T20:44:50.938Z,3.72
2023-04-28T20:49:52.875Z,3.63
2023-04-28T20:54:55.043Z,3.95
2023-04-28T20:59:56.576Z,3.50
2023-04-28T21:04:58.260Z,4.25
2023-04-28T21:09:59.789Z,3.80
2023-04-28T21:15:01.617Z,3.70
2023-04-28T21:20:03.597Z,3.85
2023-04-28T21:25:08.377Z,3.55
2023-04-28T21:30:11.782Z,3.75
2023-04-28T21:35:13.700Z,3.65
2023-04-28T21:40:16.248Z,3.67
2023-04-28T21:45:18.750Z,3.22
2023-04-28T21:50:20.326Z,3.25
2023-04-28T21:55:21.904Z,3.20
2023-04-28T22:00:23.952Z,3.17
2023-04-28T22:05:25.684Z,3.50
2023-04-28T22:10:27.415Z,3.50
2023-04-28T22:15:28.971Z,3.70
2023-04-28T22:20:30.730Z,4.30
2023-04-28T22:25:32.385Z,3.42
2023-04-28T22:30:34.250Z,4.10
2023-04-28T22:35:35.837Z,3.80
2023-04-28T22:40:37.494Z,3.83
2023-04-28T22:45:39.147Z,4.18
2023-04-28T22:50:41.079Z,4.22
2023-04-28T22:55:43.519Z,4.13
2023-04-28T23:00:45.306Z,3.80
2023-04-28T23:05:47.582Z,3.92
2023-04-28T23:10:49.491Z,4.22
2023-04-28T23:15:51.234Z,4.50
2023-04-28T23:20:52.881Z,4.40
2023-04-28T23:25:55.627Z,4.55
2023-04-28T23:30:57.196Z,4.70
2023-04-28T23:36:01.101Z,4.72
2023-04-28T23:41:06.404Z,4.32
2023-04-28T23:46:08.088Z,4.50
2023-04-28T23:51:09.928Z,4.63
2023-04-28T23:56:11.475Z,4.70
